Hartland, Minnesota
Current Conditions -  °F | °C
As of 1:51 PM on Monday 22 Dec 2014 (Local Time) from KAEL Reporting Station
Light Snow Light Snow  
Wind Chill: 24°   Ceiling: 400
Heat Index: 34°   Visibility: 1.7mi
Dew Point: 34°   Wind: 14mph
Humidity: 100%   Direction: 120°ESE
Pressure: 29.54"   Gusts: 17mph
Location:  43.8°N, 93.49°W
Report Text: KAEL 221951Z AUTO 12012G15KT 1 3/4SM -SN OVC004 01/01 A2954 RMK AO2
Loading
Personal Weather Stations






























Interactive Weather Map New forecast layout! Learn more

10-Day Weather Forecast

Advertisements
Track Severe Weather on mobile